sensor_id;sensor_type;location;lat;lon;timestamp;P1;durP1;ratioP1;P2;durP2;ratioP2
76021;SDS011;64718;52.124;6.226;2023-11-21T00:01:01;14.43;;;8.20;;
76021;SDS011;64718;52.124;6.226;2023-11-21T00:03:29;16.10;;;7.70;;
76021;SDS011;64718;52.124;6.226;2023-11-21T00:05:55;12.93;;;6.97;;
76021;SDS011;64718;52.124;6.226;2023-11-21T00:08:23;11.90;;;6.70;;
76021;SDS011;64718;52.124;6.226;2023-11-21T00:10:50;15.70;;;7.15;;
76021;SDS011;64718;52.124;6.226;2023-11-21T00:13:17;26.73;;;6.63;;
76021;SDS011;64718;52.124;6.226;2023-11-21T00:15:44;10.68;;;7.10;;
76021;SDS011;64718;52.124;6.226;2023-11-21T00:18:10;9.93;;;5.80;;
76021;SDS011;64718;52.124;6.226;2023-11-21T00:20:37;10.95;;;7.60;;
76021;SDS011;64718;52.124;6.226;2023-11-21T00:23:03;8.50;;;5.65;;
76021;SDS011;64718;52.124;6.226;2023-11-21T00:25:31;13.60;;;7.93;;
76021;SDS011;64718;52.124;6.226;2023-11-21T00:27:58;8.57;;;4.75;;
76021;SDS011;64718;52.124;6.226;2023-11-21T00:30:26;17.25;;;7.68;;
76021;SDS011;64718;52.124;6.226;2023-11-21T00:32:53;15.55;;;6.85;;
76021;SDS011;64718;52.124;6.226;2023-11-21T00:35:20;13.80;;;7.60;;
76021;SDS011;64718;52.124;6.226;2023-11-21T00:37:47;14.82;;;7.50;;
76021;SDS011;64718;52.124;6.226;2023-11-21T00:40:14;25.02;;;8.25;;
76021;SDS011;64718;52.124;6.226;2023-11-21T00:42:45;16.02;;;8.38;;
76021;SDS011;64718;52.124;6.226;2023-11-21T00:45:12;15.30;;;8.23;;
76021;SDS011;64718;52.124;6.226;2023-11-21T00:47:39;16.60;;;8.32;;
76021;SDS011;64718;52.124;6.226;2023-11-21T00:50:06;17.15;;;8.50;;
76021;SDS011;64718;52.124;6.226;2023-11-21T00:52:33;18.98;;;10.02;;
76021;SDS011;64718;52.124;6.226;2023-11-21T00:54:59;22.45;;;9.85;;
76021;SDS011;64718;52.124;6.226;2023-11-21T00:57:26;18.83;;;9.25;;
76021;SDS011;64718;52.124;6.226;2023-11-21T00:59:54;15.80;;;7.85;;
76021;SDS011;64718;52.124;6.226;2023-11-21T01:02:21;20.00;;;9.32;;
76021;SDS011;64718;52.124;6.226;2023-11-21T01:04:47;13.93;;;7.97;;
76021;SDS011;64718;52.124;6.226;2023-11-21T01:07:14;21.15;;;9.23;;
76021;SDS011;64718;52.124;6.226;2023-11-21T01:09:40;21.17;;;9.40;;
76021;SDS011;64718;52.124;6.226;2023-11-21T01:12:09;21.45;;;9.65;;
76021;SDS011;64718;52.124;6.226;2023-11-21T01:14:36;19.58;;;8.90;;
76021;SDS011;64718;52.124;6.226;2023-11-21T01:17:04;17.73;;;8.00;;
76021;SDS011;64718;52.124;6.226;2023-11-21T01:19:31;20.35;;;9.75;;
76021;SDS011;64718;52.124;6.226;2023-11-21T01:21:57;19.40;;;9.35;;
76021;SDS011;64718;52.124;6.226;2023-11-21T01:24:24;22.98;;;10.63;;
76021;SDS011;64718;52.124;6.226;2023-11-21T01:26:50;20.33;;;9.77;;
76021;SDS011;64718;52.124;6.226;2023-11-21T01:29:17;23.80;;;10.43;;
76021;SDS011;64718;52.124;6.226;2023-11-21T01:31:44;17.42;;;9.75;;
76021;SDS011;64718;52.124;6.226;2023-11-21T01:34:11;21.05;;;10.32;;
76021;SDS011;64718;52.124;6.226;2023-11-21T01:36:39;16.17;;;8.82;;
76021;SDS011;64718;52.124;6.226;2023-11-21T01:39:05;24.13;;;10.10;;
76021;SDS011;64718;52.124;6.226;2023-11-21T01:41:36;21.20;;;11.02;;
76021;SDS011;64718;52.124;6.226;2023-11-21T01:44:03;18.77;;;9.35;;
76021;SDS011;64718;52.124;6.226;2023-11-21T01:46:32;20.88;;;9.88;;
76021;SDS011;64718;52.124;6.226;2023-11-21T01:48:59;14.02;;;7.88;;
76021;SDS011;64718;52.124;6.226;2023-11-21T01:51:27;19.80;;;9.80;;
76021;SDS011;64718;52.124;6.226;2023-11-21T01:53:54;20.20;;;9.65;;
76021;SDS011;64718;52.124;6.226;2023-11-21T01:56:21;22.00;;;10.57;;
76021;SDS011;64718;52.124;6.226;2023-11-21T01:58:48;18.30;;;9.45;;
76021;SDS011;64718;52.124;6.226;2023-11-21T02:01:14;19.50;;;9.18;;
76021;SDS011;64718;52.124;6.226;2023-11-21T02:03:43;23.08;;;11.10;;
76021;SDS011;64718;52.124;6.226;2023-11-21T02:06:10;17.80;;;10.00;;
76021;SDS011;64718;52.124;6.226;2023-11-21T02:08:37;22.00;;;10.65;;
76021;SDS011;64718;52.124;6.226;2023-11-21T02:11:04;23.17;;;10.63;;
76021;SDS011;64718;52.124;6.226;2023-11-21T02:13:31;25.05;;;10.60;;
76021;SDS011;64718;52.124;6.226;2023-11-21T02:15:58;16.55;;;9.10;;
76021;SDS011;64718;52.124;6.226;2023-11-21T02:18:24;17.35;;;8.77;;
76021;SDS011;64718;52.124;6.226;2023-11-21T02:20:54;23.63;;;11.02;;
76021;SDS011;64718;52.124;6.226;2023-11-21T02:23:22;23.02;;;11.10;;
76021;SDS011;64718;52.124;6.226;2023-11-21T02:25:53;23.90;;;12.82;;
76021;SDS011;64718;52.124;6.226;2023-11-21T02:28:20;28.63;;;11.68;;
76021;SDS011;64718;52.124;6.226;2023-11-21T02:30:50;21.92;;;11.13;;
76021;SDS011;64718;52.124;6.226;2023-11-21T02:33:20;25.58;;;12.90;;
76021;SDS011;64718;52.124;6.226;2023-11-21T02:35:47;23.65;;;10.60;;
76021;SDS011;64718;52.124;6.226;2023-11-21T02:38:14;27.17;;;13.93;;
76021;SDS011;64718;52.124;6.226;2023-11-21T02:40:42;30.23;;;13.07;;
76021;SDS011;64718;52.124;6.226;2023-11-21T02:43:08;23.35;;;11.23;;
76021;SDS011;64718;52.124;6.226;2023-11-21T02:45:35;27.42;;;13.38;;
76021;SDS011;64718;52.124;6.226;2023-11-21T02:48:01;24.92;;;11.20;;
76021;SDS011;64718;52.124;6.226;2023-11-21T02:50:28;16.70;;;7.68;;
76021;SDS011;64718;52.124;6.226;2023-11-21T02:52:54;20.13;;;9.73;;
76021;SDS011;64718;52.124;6.226;2023-11-21T02:55:22;23.58;;;9.90;;
76021;SDS011;64718;52.124;6.226;2023-11-21T02:57:51;22.25;;;9.45;;
76021;SDS011;64718;52.124;6.226;2023-11-21T03:00:18;20.38;;;9.43;;
76021;SDS011;64718;52.124;6.226;2023-11-21T03:02:44;23.63;;;10.80;;
76021;SDS011;64718;52.124;6.226;2023-11-21T03:05:12;22.08;;;9.85;;
76021;SDS011;64718;52.124;6.226;2023-11-21T03:07:39;27.60;;;11.82;;
76021;SDS011;64718;52.124;6.226;2023-11-21T03:10:06;24.05;;;9.00;;
76021;SDS011;64718;52.124;6.226;2023-11-21T03:12:36;23.27;;;10.77;;
76021;SDS011;64718;52.124;6.226;2023-11-21T03:15:04;17.25;;;9.20;;
76021;SDS011;64718;52.124;6.226;2023-11-21T03:17:32;20.98;;;8.95;;
76021;SDS011;64718;52.124;6.226;2023-11-21T03:19:59;21.90;;;9.13;;
76021;SDS011;64718;52.124;6.226;2023-11-21T03:22:25;27.38;;;11.90;;
76021;SDS011;64718;52.124;6.226;2023-11-21T03:24:52;24.90;;;11.40;;
76021;SDS011;64718;52.124;6.226;2023-11-21T03:27:18;26.20;;;11.32;;
76021;SDS011;64718;52.124;6.226;2023-11-21T03:29:45;26.67;;;11.73;;
76021;SDS011;64718;52.124;6.226;2023-11-21T03:32:13;29.45;;;11.80;;
76021;SDS011;64718;52.124;6.226;2023-11-21T03:34:52;25.05;;;11.98;;
76021;SDS011;64718;52.124;6.226;2023-11-21T03:37:20;25.75;;;12.43;;
76021;SDS011;64718;52.124;6.226;2023-11-21T03:39:47;27.83;;;13.15;;
76021;SDS011;64718;52.124;6.226;2023-11-21T03:42:13;27.73;;;10.75;;
76021;SDS011;64718;52.124;6.226;2023-11-21T03:44:40;28.33;;;12.40;;
76021;SDS011;64718;52.124;6.226;2023-11-21T03:47:06;29.27;;;11.45;;
76021;SDS011;64718;52.124;6.226;2023-11-21T03:49:34;22.27;;;11.18;;
76021;SDS011;64718;52.124;6.226;2023-11-21T03:52:00;26.00;;;10.73;;
76021;SDS011;64718;52.124;6.226;2023-11-21T03:54:27;21.90;;;10.45;;
76021;SDS011;64718;52.124;6.226;2023-11-21T03:56:54;26.25;;;11.90;;
76021;SDS011;64718;52.124;6.226;2023-11-21T03:59:21;23.70;;;12.85;;
76021;SDS011;64718;52.124;6.226;2023-11-21T04:01:49;21.63;;;10.85;;
76021;SDS011;64718;52.124;6.226;2023-11-21T04:04:16;27.48;;;12.73;;
76021;SDS011;64718;52.124;6.226;2023-11-21T04:06:43;23.95;;;11.68;;
76021;SDS011;64718;52.124;6.226;2023-11-21T04:09:10;20.92;;;10.43;;
76021;SDS011;64718;52.124;6.226;2023-11-21T04:11:37;27.45;;;12.40;;
76021;SDS011;64718;52.124;6.226;2023-11-21T04:14:04;25.40;;;11.13;;
76021;SDS011;64718;52.124;6.226;2023-11-21T04:16:30;24.20;;;10.85;;
76021;SDS011;64718;52.124;6.226;2023-11-21T04:18:57;23.67;;;11.35;;
76021;SDS011;64718;52.124;6.226;2023-11-21T04:21:23;23.23;;;10.93;;
76021;SDS011;64718;52.124;6.226;2023-11-21T04:23:51;27.65;;;12.18;;
76021;SDS011;64718;52.124;6.226;2023-11-21T04:26:18;25.88;;;10.95;;
76021;SDS011;64718;52.124;6.226;2023-11-21T04:28:44;25.15;;;11.13;;
76021;SDS011;64718;52.124;6.226;2023-11-21T04:31:11;20.33;;;11.48;;
76021;SDS011;64718;52.124;6.226;2023-11-21T04:33:37;22.90;;;10.82;;
76021;SDS011;64718;52.124;6.226;2023-11-21T04:36:04;26.40;;;11.90;;
76021;SDS011;64718;52.124;6.226;2023-11-21T04:38:31;27.40;;;12.60;;
76021;SDS011;64718;52.124;6.226;2023-11-21T04:40:59;26.90;;;12.38;;
76021;SDS011;64718;52.124;6.226;2023-11-21T04:43:26;26.42;;;12.05;;
76021;SDS011;64718;52.124;6.226;2023-11-21T04:45:52;31.70;;;13.85;;
76021;SDS011;64718;52.124;6.226;2023-11-21T04:48:20;31.40;;;14.50;;
76021;SDS011;64718;52.124;6.226;2023-11-21T04:50:47;31.45;;;14.80;;
76021;SDS011;64718;52.124;6.226;2023-11-21T04:53:13;30.02;;;12.27;;
76021;SDS011;64718;52.124;6.226;2023-11-21T04:55:40;34.38;;;14.38;;
76021;SDS011;64718;52.124;6.226;2023-11-21T04:58:08;28.98;;;12.05;;
76021;SDS011;64718;52.124;6.226;2023-11-21T05:00:34;31.27;;;13.80;;
76021;SDS011;64718;52.124;6.226;2023-11-21T05:03:02;27.73;;;12.68;;
76021;SDS011;64718;52.124;6.226;2023-11-21T05:05:29;33.22;;;14.43;;
76021;SDS011;64718;52.124;6.226;2023-11-21T05:07:56;29.48;;;13.70;;
76021;SDS011;64718;52.124;6.226;2023-11-21T05:10:22;28.60;;;13.18;;
76021;SDS011;64718;52.124;6.226;2023-11-21T05:12:49;31.80;;;11.23;;
76021;SDS011;64718;52.124;6.226;2023-11-21T05:15:17;30.60;;;12.35;;
76021;SDS011;64718;52.124;6.226;2023-11-21T05:17:43;32.47;;;14.65;;
76021;SDS011;64718;52.124;6.226;2023-11-21T05:20:10;30.83;;;13.20;;
76021;SDS011;64718;52.124;6.226;2023-11-21T05:22:39;33.53;;;14.05;;
76021;SDS011;64718;52.124;6.226;2023-11-21T05:25:07;35.90;;;14.32;;
76021;SDS011;64718;52.124;6.226;2023-11-21T05:27:34;28.00;;;11.68;;
76021;SDS011;64718;52.124;6.226;2023-11-21T05:30:01;35.13;;;13.82;;
76021;SDS011;64718;52.124;6.226;2023-11-21T05:32:31;34.63;;;15.23;;
76021;SDS011;64718;52.124;6.226;2023-11-21T05:34:59;33.05;;;14.00;;
76021;SDS011;64718;52.124;6.226;2023-11-21T05:37:26;31.38;;;14.88;;
76021;SDS011;64718;52.124;6.226;2023-11-21T05:39:52;35.70;;;16.33;;
76021;SDS011;64718;52.124;6.226;2023-11-21T05:42:19;35.13;;;13.60;;
76021;SDS011;64718;52.124;6.226;2023-11-21T05:44:46;39.22;;;15.30;;
76021;SDS011;64718;52.124;6.226;2023-11-21T05:47:12;38.45;;;14.65;;
76021;SDS011;64718;52.124;6.226;2023-11-21T05:49:40;37.88;;;15.07;;
76021;SDS011;64718;52.124;6.226;2023-11-21T05:52:07;40.90;;;15.32;;
76021;SDS011;64718;52.124;6.226;2023-11-21T05:54:33;36.30;;;15.18;;
76021;SDS011;64718;52.124;6.226;2023-11-21T05:57:00;35.65;;;15.30;;
76021;SDS011;64718;52.124;6.226;2023-11-21T05:59:26;39.63;;;17.42;;
76021;SDS011;64718;52.124;6.226;2023-11-21T06:01:53;32.35;;;14.77;;
76021;SDS011;64718;52.124;6.226;2023-11-21T06:04:19;38.30;;;15.73;;
76021;SDS011;64718;52.124;6.226;2023-11-21T06:06:50;34.72;;;13.50;;
76021;SDS011;64718;52.124;6.226;2023-11-21T06:09:17;30.08;;;13.93;;
76021;SDS011;64718;52.124;6.226;2023-11-21T06:11:43;33.75;;;14.07;;
76021;SDS011;64718;52.124;6.226;2023-11-21T06:14:10;31.20;;;13.05;;
76021;SDS011;64718;52.124;6.226;2023-11-21T06:16:36;34.08;;;14.68;;
76021;SDS011;64718;52.124;6.226;2023-11-21T06:19:04;33.83;;;13.98;;
76021;SDS011;64718;52.124;6.226;2023-11-21T06:21:30;29.90;;;14.90;;
76021;SDS011;64718;52.124;6.226;2023-11-21T06:23:59;33.95;;;13.48;;
76021;SDS011;64718;52.124;6.226;2023-11-21T06:26:26;30.90;;;13.10;;
76021;SDS011;64718;52.124;6.226;2023-11-21T06:28:53;33.72;;;14.38;;
76021;SDS011;64718;52.124;6.226;2023-11-21T06:31:20;29.38;;;11.52;;
76021;SDS011;64718;52.124;6.226;2023-11-21T06:33:46;29.27;;;13.45;;
76021;SDS011;64718;52.124;6.226;2023-11-21T06:36:13;28.70;;;13.88;;
76021;SDS011;64718;52.124;6.226;2023-11-21T06:38:40;32.30;;;15.23;;
76021;SDS011;64718;52.124;6.226;2023-11-21T06:41:08;31.67;;;11.13;;
76021;SDS011;64718;52.124;6.226;2023-11-21T06:43:34;35.53;;;12.93;;
76021;SDS011;64718;52.124;6.226;2023-11-21T06:46:01;31.20;;;14.50;;
76021;SDS011;64718;52.124;6.226;2023-11-21T06:48:27;25.90;;;12.63;;
76021;SDS011;64718;52.124;6.226;2023-11-21T06:50:55;30.13;;;12.50;;
76021;SDS011;64718;52.124;6.226;2023-11-21T06:53:21;30.52;;;13.88;;
76021;SDS011;64718;52.124;6.226;2023-11-21T06:55:48;28.98;;;12.57;;
76021;SDS011;64718;52.124;6.226;2023-11-21T06:58:16;33.15;;;13.50;;
76021;SDS011;64718;52.124;6.226;2023-11-21T07:00:42;30.90;;;13.13;;
76021;SDS011;64718;52.124;6.226;2023-11-21T07:03:11;28.17;;;13.20;;
76021;SDS011;64718;52.124;6.226;2023-11-21T07:05:38;28.95;;;12.88;;
76021;SDS011;64718;52.124;6.226;2023-11-21T07:08:04;31.85;;;12.90;;
76021;SDS011;64718;52.124;6.226;2023-11-21T07:10:32;25.35;;;12.30;;
76021;SDS011;64718;52.124;6.226;2023-11-21T07:13:00;31.25;;;12.63;;
76021;SDS011;64718;52.124;6.226;2023-11-21T07:15:27;26.08;;;11.48;;
76021;SDS011;64718;52.124;6.226;2023-11-21T07:17:54;23.48;;;11.80;;
76021;SDS011;64718;52.124;6.226;2023-11-21T07:20:21;29.05;;;15.25;;
76021;SDS011;64718;52.124;6.226;2023-11-21T07:22:48;31.52;;;12.43;;
76021;SDS011;64718;52.124;6.226;2023-11-21T07:25:15;30.33;;;13.02;;
76021;SDS011;64718;52.124;6.226;2023-11-21T07:27:41;24.73;;;13.57;;
76021;SDS011;64718;52.124;6.226;2023-11-21T07:30:08;26.48;;;13.25;;
76021;SDS011;64718;52.124;6.226;2023-11-21T07:32:37;26.35;;;11.85;;
76021;SDS011;64718;52.124;6.226;2023-11-21T07:35:04;27.50;;;12.30;;
76021;SDS011;64718;52.124;6.226;2023-11-21T07:37:33;27.70;;;13.77;;
76021;SDS011;64718;52.124;6.226;2023-11-21T07:39:59;32.10;;;12.75;;
76021;SDS011;64718;52.124;6.226;2023-11-21T07:42:26;28.85;;;11.52;;
76021;SDS011;64718;52.124;6.226;2023-11-21T07:44:52;27.77;;;12.13;;
76021;SDS011;64718;52.124;6.226;2023-11-21T07:47:19;23.55;;;12.65;;
76021;SDS011;64718;52.124;6.226;2023-11-21T07:49:47;28.63;;;12.90;;
76021;SDS011;64718;52.124;6.226;2023-11-21T07:52:13;24.63;;;11.60;;
76021;SDS011;64718;52.124;6.226;2023-11-21T07:54:41;28.75;;;13.70;;
76021;SDS011;64718;52.124;6.226;2023-11-21T07:57:08;26.90;;;13.85;;
76021;SDS011;64718;52.124;6.226;2023-11-21T07:59:37;26.23;;;12.82;;
76021;SDS011;64718;52.124;6.226;2023-11-21T08:02:04;27.10;;;12.40;;
76021;SDS011;64718;52.124;6.226;2023-11-21T08:04:30;28.92;;;13.27;;
76021;SDS011;64718;52.124;6.226;2023-11-21T08:06:58;24.02;;;11.73;;
76021;SDS011;64718;52.124;6.226;2023-11-21T08:09:25;24.98;;;12.82;;
76021;SDS011;64718;52.124;6.226;2023-11-21T08:11:52;24.70;;;12.40;;
76021;SDS011;64718;52.124;6.226;2023-11-21T08:14:19;24.35;;;11.05;;
76021;SDS011;64718;52.124;6.226;2023-11-21T08:16:45;22.60;;;11.85;;
76021;SDS011;64718;52.124;6.226;2023-11-21T08:19:12;24.60;;;11.57;;
76021;SDS011;64718;52.124;6.226;2023-11-21T08:21:38;23.90;;;12.15;;
76021;SDS011;64718;52.124;6.226;2023-11-21T08:24:07;20.75;;;11.02;;
76021;SDS011;64718;52.124;6.226;2023-11-21T08:26:35;23.65;;;10.70;;
76021;SDS011;64718;52.124;6.226;2023-11-21T08:29:02;25.30;;;12.23;;
76021;SDS011;64718;52.124;6.226;2023-11-21T08:31:32;22.63;;;12.02;;
76021;SDS011;64718;52.124;6.226;2023-11-21T08:33:58;27.00;;;13.23;;
76021;SDS011;64718;52.124;6.226;2023-11-21T08:36:27;27.95;;;14.68;;
76021;SDS011;64718;52.124;6.226;2023-11-21T08:38:53;20.90;;;12.30;;
76021;SDS011;64718;52.124;6.226;2023-11-21T08:41:21;25.23;;;12.68;;
76021;SDS011;64718;52.124;6.226;2023-11-21T08:43:48;24.20;;;13.50;;
76021;SDS011;64718;52.124;6.226;2023-11-21T08:46:15;19.23;;;10.45;;
76021;SDS011;64718;52.124;6.226;2023-11-21T08:48:43;22.02;;;10.30;;
76021;SDS011;64718;52.124;6.226;2023-11-21T08:51:10;23.02;;;11.85;;
76021;SDS011;64718;52.124;6.226;2023-11-21T08:53:38;22.83;;;11.05;;
76021;SDS011;64718;52.124;6.226;2023-11-21T08:56:05;21.33;;;11.35;;
76021;SDS011;64718;52.124;6.226;2023-11-21T08:58:34;21.58;;;10.32;;
76021;SDS011;64718;52.124;6.226;2023-11-21T09:01:02;23.20;;;11.30;;
76021;SDS011;64718;52.124;6.226;2023-11-21T09:03:28;22.45;;;11.65;;
76021;SDS011;64718;52.124;6.226;2023-11-21T09:05:57;23.42;;;12.98;;
76021;SDS011;64718;52.124;6.226;2023-11-21T09:08:23;24.77;;;11.10;;
76021;SDS011;64718;52.124;6.226;2023-11-21T09:10:50;19.90;;;12.02;;
76021;SDS011;64718;52.124;6.226;2023-11-21T09:13:17;17.48;;;9.63;;
76021;SDS011;64718;52.124;6.226;2023-11-21T09:15:45;21.88;;;9.57;;
76021;SDS011;64718;52.124;6.226;2023-11-21T09:18:12;25.30;;;12.27;;
76021;SDS011;64718;52.124;6.226;2023-11-21T09:20:39;19.20;;;10.45;;
76021;SDS011;64718;52.124;6.226;2023-11-21T09:23:06;18.85;;;10.18;;
76021;SDS011;64718;52.124;6.226;2023-11-21T09:25:33;20.15;;;9.18;;
76021;SDS011;64718;52.124;6.226;2023-11-21T09:28:00;19.63;;;10.80;;
76021;SDS011;64718;52.124;6.226;2023-11-21T09:30:26;22.23;;;9.57;;
76021;SDS011;64718;52.124;6.226;2023-11-21T09:32:54;21.83;;;9.82;;
76021;SDS011;64718;52.124;6.226;2023-11-21T09:35:20;19.00;;;9.32;;
76021;SDS011;64718;52.124;6.226;2023-11-21T09:37:47;16.67;;;9.68;;
76021;SDS011;64718;52.124;6.226;2023-11-21T09:40:13;22.92;;;9.60;;
76021;SDS011;64718;52.124;6.226;2023-11-21T09:42:43;20.30;;;9.05;;
76021;SDS011;64718;52.124;6.226;2023-11-21T09:45:17;20.35;;;10.57;;
76021;SDS011;64718;52.124;6.226;2023-11-21T09:47:48;17.48;;;9.40;;
76021;SDS011;64718;52.124;6.226;2023-11-21T09:50:17;19.45;;;9.45;;
76021;SDS011;64718;52.124;6.226;2023-11-21T09:52:49;24.30;;;10.38;;
76021;SDS011;64718;52.124;6.226;2023-11-21T09:55:22;19.90;;;9.55;;
76021;SDS011;64718;52.124;6.226;2023-11-21T09:57:53;18.55;;;9.63;;
76021;SDS011;64718;52.124;6.226;2023-11-21T10:00:22;16.05;;;9.20;;
76021;SDS011;64718;52.124;6.226;2023-11-21T10:02:49;22.33;;;10.35;;
76021;SDS011;64718;52.124;6.226;2023-11-21T10:05:17;18.75;;;9.32;;
76021;SDS011;64718;52.124;6.226;2023-11-21T10:07:47;17.10;;;9.00;;
76021;SDS011;64718;52.124;6.226;2023-11-21T10:10:17;17.35;;;8.73;;
76021;SDS011;64718;52.124;6.226;2023-11-21T10:12:47;16.38;;;8.38;;
76021;SDS011;64718;52.124;6.226;2023-11-21T10:15:16;16.30;;;7.35;;
76021;SDS011;64718;52.124;6.226;2023-11-21T10:17:44;14.73;;;8.40;;
76021;SDS011;64718;52.124;6.226;2023-11-21T10:20:10;13.60;;;7.32;;
76021;SDS011;64718;52.124;6.226;2023-11-21T10:22:40;12.07;;;6.20;;
76021;SDS011;64718;52.124;6.226;2023-11-21T10:27:34;18.08;;;7.28;;
76021;SDS011;64718;52.124;6.226;2023-11-21T10:30:00;16.58;;;9.32;;
76021;SDS011;64718;52.124;6.226;2023-11-21T10:32:28;16.60;;;7.55;;
76021;SDS011;64718;52.124;6.226;2023-11-21T10:34:57;14.45;;;5.90;;
76021;SDS011;64718;52.124;6.226;2023-11-21T10:37:25;15.73;;;7.68;;
76021;SDS011;64718;52.124;6.226;2023-11-21T10:39:58;11.50;;;7.68;;
76021;SDS011;64718;52.124;6.226;2023-11-21T10:42:25;17.35;;;7.65;;
76021;SDS011;64718;52.124;6.226;2023-11-21T10:44:52;15.73;;;7.15;;
76021;SDS011;64718;52.124;6.226;2023-11-21T10:47:19;15.98;;;8.63;;
76021;SDS011;64718;52.124;6.226;2023-11-21T10:49:48;14.07;;;7.22;;
76021;SDS011;64718;52.124;6.226;2023-11-21T10:52:15;14.75;;;7.38;;
76021;SDS011;64718;52.124;6.226;2023-11-21T10:54:42;13.20;;;7.07;;
76021;SDS011;64718;52.124;6.226;2023-11-21T10:57:10;16.30;;;8.90;;
76021;SDS011;64718;52.124;6.226;2023-11-21T10:59:40;14.43;;;8.02;;
76021;SDS011;64718;52.124;6.226;2023-11-21T11:02:10;16.10;;;7.90;;
76021;SDS011;64718;52.124;6.226;2023-11-21T11:04:47;17.75;;;8.90;;
76021;SDS011;64718;52.124;6.226;2023-11-21T11:07:15;19.98;;;9.13;;
76021;SDS011;64718;52.124;6.226;2023-11-21T11:09:42;18.55;;;9.63;;
76021;SDS011;64718;52.124;6.226;2023-11-21T11:12:12;21.73;;;9.80;;
76021;SDS011;64718;52.124;6.226;2023-11-21T11:14:40;21.65;;;10.43;;
76021;SDS011;64718;52.124;6.226;2023-11-21T11:17:08;24.52;;;11.32;;
76021;SDS011;64718;52.124;6.226;2023-11-21T11:19:36;24.98;;;11.25;;
76021;SDS011;64718;52.124;6.226;2023-11-21T11:22:12;20.05;;;9.48;;
76021;SDS011;64718;52.124;6.226;2023-11-21T11:25:03;19.33;;;8.13;;
76021;SDS011;64718;52.124;6.226;2023-11-21T11:27:55;20.73;;;10.15;;
76021;SDS011;64718;52.124;6.226;2023-11-21T11:30:33;22.85;;;11.48;;
76021;SDS011;64718;52.124;6.226;2023-11-21T11:33:12;23.95;;;11.13;;
76021;SDS011;64718;52.124;6.226;2023-11-21T11:35:51;24.63;;;10.35;;
76021;SDS011;64718;52.124;6.226;2023-11-21T11:38:23;23.13;;;11.98;;
76021;SDS011;64718;52.124;6.226;2023-11-21T11:40:52;27.33;;;12.68;;
76021;SDS011;64718;52.124;6.226;2023-11-21T11:43:25;27.95;;;10.85;;
76021;SDS011;64718;52.124;6.226;2023-11-21T11:45:55;28.73;;;11.32;;
76021;SDS011;64718;52.124;6.226;2023-11-21T11:48:24;22.48;;;12.48;;
76021;SDS011;64718;52.124;6.226;2023-11-21T11:51:03;25.60;;;11.70;;
76021;SDS011;64718;52.124;6.226;2023-11-21T11:53:35;30.60;;;12.18;;
76021;SDS011;64718;52.124;6.226;2023-11-21T11:58:52;20.98;;;9.13;;
76021;SDS011;64718;52.124;6.226;2023-11-21T12:01:20;26.27;;;12.20;;
76021;SDS011;64718;52.124;6.226;2023-11-21T12:07:02;24.60;;;10.40;;
76021;SDS011;64718;52.124;6.226;2023-11-21T12:09:29;29.98;;;12.73;;
76021;SDS011;64718;52.124;6.226;2023-11-21T12:11:57;25.50;;;10.40;;
76021;SDS011;64718;52.124;6.226;2023-11-21T12:14:26;27.15;;;10.85;;
76021;SDS011;64718;52.124;6.226;2023-11-21T12:16:53;24.73;;;11.80;;
76021;SDS011;64718;52.124;6.226;2023-11-21T12:19:20;22.92;;;10.63;;
76021;SDS011;64718;52.124;6.226;2023-11-21T12:21:48;29.88;;;12.10;;
76021;SDS011;64718;52.124;6.226;2023-11-21T12:24:15;31.20;;;12.07;;
76021;SDS011;64718;52.124;6.226;2023-11-21T12:26:42;29.45;;;11.52;;
76021;SDS011;64718;52.124;6.226;2023-11-21T12:29:10;29.23;;;12.15;;
76021;SDS011;64718;52.124;6.226;2023-11-21T12:31:38;26.58;;;11.95;;
76021;SDS011;64718;52.124;6.226;2023-11-21T12:34:05;27.30;;;11.98;;
76021;SDS011;64718;52.124;6.226;2023-11-21T12:36:34;23.73;;;11.07;;
76021;SDS011;64718;52.124;6.226;2023-11-21T12:39:01;25.40;;;10.68;;
76021;SDS011;64718;52.124;6.226;2023-11-21T12:41:28;22.95;;;10.68;;
76021;SDS011;64718;52.124;6.226;2023-11-21T12:43:56;23.33;;;9.35;;
76021;SDS011;64718;52.124;6.226;2023-11-21T12:46:22;24.38;;;9.98;;
76021;SDS011;64718;52.124;6.226;2023-11-21T12:48:52;21.35;;;10.35;;
76021;SDS011;64718;52.124;6.226;2023-11-21T12:51:19;24.80;;;9.38;;
76021;SDS011;64718;52.124;6.226;2023-11-21T12:53:47;21.20;;;10.07;;
76021;SDS011;64718;52.124;6.226;2023-11-21T12:56:14;20.42;;;7.88;;
76021;SDS011;64718;52.124;6.226;2023-11-21T12:58:44;20.45;;;8.18;;
76021;SDS011;64718;52.124;6.226;2023-11-21T13:01:12;20.40;;;6.95;;
76021;SDS011;64718;52.124;6.226;2023-11-21T13:03:44;13.90;;;6.20;;
76021;SDS011;64718;52.124;6.226;2023-11-21T13:06:15;17.23;;;6.88;;
76021;SDS011;64718;52.124;6.226;2023-11-21T13:08:42;14.10;;;6.05;;
76021;SDS011;64718;52.124;6.226;2023-11-21T13:11:10;18.48;;;6.78;;
76021;SDS011;64718;52.124;6.226;2023-11-21T13:13:39;18.95;;;7.32;;
76021;SDS011;64718;52.124;6.226;2023-11-21T13:16:07;21.48;;;7.10;;
76021;SDS011;64718;52.124;6.226;2023-11-21T13:18:34;16.27;;;7.82;;
76021;SDS011;64718;52.124;6.226;2023-11-21T13:21:02;18.55;;;6.88;;
76021;SDS011;64718;52.124;6.226;2023-11-21T13:23:36;18.15;;;7.10;;
76021;SDS011;64718;52.124;6.226;2023-11-21T13:26:03;17.35;;;7.38;;
76021;SDS011;64718;52.124;6.226;2023-11-21T13:28:30;19.63;;;7.50;;
76021;SDS011;64718;52.124;6.226;2023-11-21T13:30:58;16.30;;;5.45;;
76021;SDS011;64718;52.124;6.226;2023-11-21T13:33:27;14.38;;;5.82;;
76021;SDS011;64718;52.124;6.226;2023-11-21T13:35:55;15.95;;;6.47;;
76021;SDS011;64718;52.124;6.226;2023-11-21T13:38:22;15.75;;;6.28;;
76021;SDS011;64718;52.124;6.226;2023-11-21T13:40:51;20.95;;;7.45;;
76021;SDS011;64718;52.124;6.226;2023-11-21T13:43:19;20.85;;;7.57;;
76021;SDS011;64718;52.124;6.226;2023-11-21T13:45:49;18.80;;;7.88;;
76021;SDS011;64718;52.124;6.226;2023-11-21T13:48:20;18.33;;;7.03;;
76021;SDS011;64718;52.124;6.226;2023-11-21T13:50:53;19.33;;;7.43;;
76021;SDS011;64718;52.124;6.226;2023-11-21T13:53:23;15.10;;;6.35;;
76021;SDS011;64718;52.124;6.226;2023-11-21T13:55:52;14.02;;;4.47;;
76021;SDS011;64718;52.124;6.226;2023-11-21T13:58:19;9.90;;;4.35;;
76021;SDS011;64718;52.124;6.226;2023-11-21T14:00:49;9.85;;;5.00;;
76021;SDS011;64718;52.124;6.226;2023-11-21T14:03:21;13.93;;;5.88;;
76021;SDS011;64718;52.124;6.226;2023-11-21T14:05:57;12.57;;;5.50;;
76021;SDS011;64718;52.124;6.226;2023-11-21T14:08:25;14.25;;;5.82;;
76021;SDS011;64718;52.124;6.226;2023-11-21T14:10:55;9.52;;;5.75;;
76021;SDS011;64718;52.124;6.226;2023-11-21T14:13:22;11.27;;;5.82;;
76021;SDS011;64718;52.124;6.226;2023-11-21T14:15:50;12.05;;;5.10;;
76021;SDS011;64718;52.124;6.226;2023-11-21T14:18:22;12.30;;;5.47;;
76021;SDS011;64718;52.124;6.226;2023-11-21T14:20:55;14.98;;;6.40;;
76021;SDS011;64718;52.124;6.226;2023-11-21T14:23:22;9.70;;;4.82;;
76021;SDS011;64718;52.124;6.226;2023-11-21T14:25:48;15.52;;;7.28;;
76021;SDS011;64718;52.124;6.226;2023-11-21T14:28:17;17.60;;;7.10;;
76021;SDS011;64718;52.124;6.226;2023-11-21T14:30:44;14.70;;;8.52;;
76021;SDS011;64718;52.124;6.226;2023-11-21T14:33:11;13.30;;;8.13;;
76021;SDS011;64718;52.124;6.226;2023-11-21T14:35:38;24.10;;;8.45;;
76021;SDS011;64718;52.124;6.226;2023-11-21T14:38:04;12.32;;;6.68;;